sensor_id;sensor_type;location;lat;lon;timestamp;P1;durP1;ratioP1;P2;durP2;ratioP2
82926;SDS011;72788;40.218;44.486;2024-01-30T00:01:41;50.30;;;25.02;;
82926;SDS011;72788;40.218;44.486;2024-01-30T00:04:06;47.95;;;24.58;;
82926;SDS011;72788;40.218;44.486;2024-01-30T00:06:32;55.85;;;25.92;;
82926;SDS011;72788;40.218;44.486;2024-01-30T00:08:57;53.78;;;24.48;;
82926;SDS011;72788;40.218;44.486;2024-01-30T00:11:23;47.72;;;24.95;;
82926;SDS011;72788;40.218;44.486;2024-01-30T00:13:51;53.22;;;25.05;;
82926;SDS011;72788;40.218;44.486;2024-01-30T00:16:23;54.33;;;26.00;;
82926;SDS011;72788;40.218;44.486;2024-01-30T00:18:53;59.25;;;26.60;;
82926;SDS011;72788;40.218;44.486;2024-01-30T00:21:19;64.80;;;24.80;;
82926;SDS011;72788;40.218;44.486;2024-01-30T00:23:45;49.42;;;24.27;;
82926;SDS011;72788;40.218;44.486;2024-01-30T00:26:11;47.83;;;23.13;;
82926;SDS011;72788;40.218;44.486;2024-01-30T00:28:37;49.40;;;24.42;;
82926;SDS011;72788;40.218;44.486;2024-01-30T00:31:03;46.70;;;23.20;;
82926;SDS011;72788;40.218;44.486;2024-01-30T00:33:29;45.35;;;19.80;;
82926;SDS011;72788;40.218;44.486;2024-01-30T00:35:55;45.53;;;20.90;;
82926;SDS011;72788;40.218;44.486;2024-01-30T00:38:21;38.60;;;18.20;;
82926;SDS011;72788;40.218;44.486;2024-01-30T00:40:47;34.95;;;15.95;;
82926;SDS011;72788;40.218;44.486;2024-01-30T00:43:13;31.08;;;16.33;;
82926;SDS011;72788;40.218;44.486;2024-01-30T00:45:39;30.98;;;14.15;;
82926;SDS011;72788;40.218;44.486;2024-01-30T00:48:04;31.65;;;13.75;;
82926;SDS011;72788;40.218;44.486;2024-01-30T00:50:30;29.15;;;12.77;;
82926;SDS011;72788;40.218;44.486;2024-01-30T00:52:56;30.83;;;14.63;;
82926;SDS011;72788;40.218;44.486;2024-01-30T00:55:22;31.15;;;14.18;;
82926;SDS011;72788;40.218;44.486;2024-01-30T00:57:47;27.75;;;13.75;;
82926;SDS011;72788;40.218;44.486;2024-01-30T01:00:13;29.20;;;14.50;;
82926;SDS011;72788;40.218;44.486;2024-01-30T01:02:42;33.65;;;15.93;;
82926;SDS011;72788;40.218;44.486;2024-01-30T01:05:08;34.45;;;17.10;;
82926;SDS011;72788;40.218;44.486;2024-01-30T01:07:34;32.45;;;16.20;;
82926;SDS011;72788;40.218;44.486;2024-01-30T01:10:00;36.15;;;17.45;;
82926;SDS011;72788;40.218;44.486;2024-01-30T01:12:25;39.40;;;18.55;;
82926;SDS011;72788;40.218;44.486;2024-01-30T01:14:51;35.03;;;17.50;;
82926;SDS011;72788;40.218;44.486;2024-01-30T01:17:17;37.13;;;17.48;;
82926;SDS011;72788;40.218;44.486;2024-01-30T01:19:43;37.88;;;19.42;;
82926;SDS011;72788;40.218;44.486;2024-01-30T01:22:09;38.95;;;19.00;;
82926;SDS011;72788;40.218;44.486;2024-01-30T01:24:35;42.75;;;19.60;;
82926;SDS011;72788;40.218;44.486;2024-01-30T01:27:01;39.63;;;19.17;;
82926;SDS011;72788;40.218;44.486;2024-01-30T01:29:27;40.13;;;20.58;;
82926;SDS011;72788;40.218;44.486;2024-01-30T01:31:54;32.80;;;17.90;;
82926;SDS011;72788;40.218;44.486;2024-01-30T01:34:21;44.80;;;20.73;;
82926;SDS011;72788;40.218;44.486;2024-01-30T01:36:47;33.70;;;18.40;;
82926;SDS011;72788;40.218;44.486;2024-01-30T01:39:12;40.35;;;16.15;;
82926;SDS011;72788;40.218;44.486;2024-01-30T01:41:38;35.85;;;16.98;;
82926;SDS011;72788;40.218;44.486;2024-01-30T01:44:04;32.25;;;14.38;;
82926;SDS011;72788;40.218;44.486;2024-01-30T01:46:30;31.20;;;13.57;;
82926;SDS011;72788;40.218;44.486;2024-01-30T01:48:58;30.50;;;14.60;;
82926;SDS011;72788;40.218;44.486;2024-01-30T01:51:26;27.48;;;13.40;;
82926;SDS011;72788;40.218;44.486;2024-01-30T01:53:53;24.80;;;13.15;;
82926;SDS011;72788;40.218;44.486;2024-01-30T01:56:20;29.50;;;13.77;;
82926;SDS011;72788;40.218;44.486;2024-01-30T01:58:46;28.10;;;13.43;;
82926;SDS011;72788;40.218;44.486;2024-01-30T02:01:14;27.73;;;14.02;;
82926;SDS011;72788;40.218;44.486;2024-01-30T02:03:44;21.98;;;10.20;;
82926;SDS011;72788;40.218;44.486;2024-01-30T02:06:10;26.08;;;12.48;;
82926;SDS011;72788;40.218;44.486;2024-01-30T02:08:37;34.25;;;14.40;;
82926;SDS011;72788;40.218;44.486;2024-01-30T02:11:04;30.00;;;13.23;;
82926;SDS011;72788;40.218;44.486;2024-01-30T02:13:30;27.98;;;13.85;;
82926;SDS011;72788;40.218;44.486;2024-01-30T02:15:56;27.65;;;13.45;;
82926;SDS011;72788;40.218;44.486;2024-01-30T02:18:22;31.90;;;15.15;;
82926;SDS011;72788;40.218;44.486;2024-01-30T02:20:47;30.05;;;14.95;;
82926;SDS011;72788;40.218;44.486;2024-01-30T02:23:15;31.90;;;14.63;;
82926;SDS011;72788;40.218;44.486;2024-01-30T02:25:42;31.38;;;14.32;;
82926;SDS011;72788;40.218;44.486;2024-01-30T02:28:12;36.58;;;15.35;;
82926;SDS011;72788;40.218;44.486;2024-01-30T02:30:39;35.95;;;16.00;;
82926;SDS011;72788;40.218;44.486;2024-01-30T02:33:05;28.98;;;14.13;;
82926;SDS011;72788;40.218;44.486;2024-01-30T02:35:30;26.80;;;13.77;;
82926;SDS011;72788;40.218;44.486;2024-01-30T02:37:56;30.38;;;15.00;;
82926;SDS011;72788;40.218;44.486;2024-01-30T02:40:22;36.00;;;14.30;;
82926;SDS011;72788;40.218;44.486;2024-01-30T02:42:47;32.20;;;15.23;;
82926;SDS011;72788;40.218;44.486;2024-01-30T02:45:13;32.42;;;14.20;;
82926;SDS011;72788;40.218;44.486;2024-01-30T02:47:39;35.33;;;15.80;;
82926;SDS011;72788;40.218;44.486;2024-01-30T02:50:05;31.10;;;15.43;;
82926;SDS011;72788;40.218;44.486;2024-01-30T02:52:31;32.45;;;16.00;;
82926;SDS011;72788;40.218;44.486;2024-01-30T02:54:57;30.33;;;15.30;;
82926;SDS011;72788;40.218;44.486;2024-01-30T02:57:23;34.92;;;15.90;;
82926;SDS011;72788;40.218;44.486;2024-01-30T02:59:49;37.53;;;16.77;;
82926;SDS011;72788;40.218;44.486;2024-01-30T03:02:14;33.72;;;16.70;;
82926;SDS011;72788;40.218;44.486;2024-01-30T03:04:40;30.13;;;15.13;;
82926;SDS011;72788;40.218;44.486;2024-01-30T03:07:07;40.55;;;16.50;;
82926;SDS011;72788;40.218;44.486;2024-01-30T03:09:33;34.80;;;17.20;;
82926;SDS011;72788;40.218;44.486;2024-01-30T03:11:59;31.67;;;15.90;;
82926;SDS011;72788;40.218;44.486;2024-01-30T03:14:24;33.28;;;15.10;;
82926;SDS011;72788;40.218;44.486;2024-01-30T03:16:50;35.80;;;17.38;;
82926;SDS011;72788;40.218;44.486;2024-01-30T03:19:16;35.70;;;17.33;;
82926;SDS011;72788;40.218;44.486;2024-01-30T03:21:42;34.78;;;17.75;;
82926;SDS011;72788;40.218;44.486;2024-01-30T03:24:07;34.30;;;16.23;;
82926;SDS011;72788;40.218;44.486;2024-01-30T03:26:34;49.25;;;23.17;;
82926;SDS011;72788;40.218;44.486;2024-01-30T03:28:59;49.97;;;23.20;;
82926;SDS011;72788;40.218;44.486;2024-01-30T03:31:25;46.67;;;22.85;;
82926;SDS011;72788;40.218;44.486;2024-01-30T03:33:51;49.78;;;21.38;;
82926;SDS011;72788;40.218;44.486;2024-01-30T03:36:16;47.47;;;24.33;;
82926;SDS011;72788;40.218;44.486;2024-01-30T03:38:42;45.80;;;22.05;;
82926;SDS011;72788;40.218;44.486;2024-01-30T03:41:08;51.45;;;22.85;;
82926;SDS011;72788;40.218;44.486;2024-01-30T03:43:34;54.45;;;24.05;;
82926;SDS011;72788;40.218;44.486;2024-01-30T03:46:01;55.28;;;26.20;;
82926;SDS011;72788;40.218;44.486;2024-01-30T03:48:27;51.67;;;22.63;;
82926;SDS011;72788;40.218;44.486;2024-01-30T03:50:53;44.30;;;20.10;;
82926;SDS011;72788;40.218;44.486;2024-01-30T03:53:19;41.63;;;17.52;;
82926;SDS011;72788;40.218;44.486;2024-01-30T03:55:45;38.45;;;15.75;;
82926;SDS011;72788;40.218;44.486;2024-01-30T03:58:10;43.78;;;18.08;;
82926;SDS011;72788;40.218;44.486;2024-01-30T04:00:36;35.85;;;17.73;;
82926;SDS011;72788;40.218;44.486;2024-01-30T04:03:02;37.42;;;17.23;;
82926;SDS011;72788;40.218;44.486;2024-01-30T04:05:28;40.53;;;17.33;;
82926;SDS011;72788;40.218;44.486;2024-01-30T04:07:54;38.40;;;17.73;;
82926;SDS011;72788;40.218;44.486;2024-01-30T04:10:19;36.97;;;17.08;;
82926;SDS011;72788;40.218;44.486;2024-01-30T04:12:45;40.80;;;15.40;;
82926;SDS011;72788;40.218;44.486;2024-01-30T04:15:11;35.15;;;16.20;;
82926;SDS011;72788;40.218;44.486;2024-01-30T04:17:38;30.65;;;15.85;;
82926;SDS011;72788;40.218;44.486;2024-01-30T04:20:05;35.42;;;15.23;;
82926;SDS011;72788;40.218;44.486;2024-01-30T04:22:31;31.77;;;15.63;;
82926;SDS011;72788;40.218;44.486;2024-01-30T04:24:57;38.63;;;17.42;;
82926;SDS011;72788;40.218;44.486;2024-01-30T04:27:22;34.75;;;15.88;;
82926;SDS011;72788;40.218;44.486;2024-01-30T04:29:48;35.30;;;16.65;;
82926;SDS011;72788;40.218;44.486;2024-01-30T04:32:14;34.90;;;17.77;;
82926;SDS011;72788;40.218;44.486;2024-01-30T04:34:39;33.88;;;15.60;;
82926;SDS011;72788;40.218;44.486;2024-01-30T04:37:05;39.55;;;17.35;;
82926;SDS011;72788;40.218;44.486;2024-01-30T04:39:32;35.85;;;17.02;;
82926;SDS011;72788;40.218;44.486;2024-01-30T04:41:58;35.97;;;17.85;;
82926;SDS011;72788;40.218;44.486;2024-01-30T04:44:24;33.20;;;15.27;;
82926;SDS011;72788;40.218;44.486;2024-01-30T04:46:50;41.10;;;17.77;;
82926;SDS011;72788;40.218;44.486;2024-01-30T04:49:16;39.60;;;17.90;;
82926;SDS011;72788;40.218;44.486;2024-01-30T04:51:41;43.58;;;19.38;;
82926;SDS011;72788;40.218;44.486;2024-01-30T04:54:07;43.55;;;19.50;;
82926;SDS011;72788;40.218;44.486;2024-01-30T04:56:33;44.50;;;17.58;;
82926;SDS011;72788;40.218;44.486;2024-01-30T04:59:01;34.90;;;16.20;;
82926;SDS011;72788;40.218;44.486;2024-01-30T05:01:27;38.47;;;17.38;;
82926;SDS011;72788;40.218;44.486;2024-01-30T05:03:53;36.20;;;17.25;;
82926;SDS011;72788;40.218;44.486;2024-01-30T05:06:25;32.75;;;16.05;;
82926;SDS011;72788;40.218;44.486;2024-01-30T05:08:52;40.88;;;19.13;;
82926;SDS011;72788;40.218;44.486;2024-01-30T05:11:18;39.95;;;18.95;;
82926;SDS011;72788;40.218;44.486;2024-01-30T05:13:44;44.13;;;20.92;;
82926;SDS011;72788;40.218;44.486;2024-01-30T05:16:09;41.72;;;17.95;;
82926;SDS011;72788;40.218;44.486;2024-01-30T05:18:35;47.28;;;18.63;;
82926;SDS011;72788;40.218;44.486;2024-01-30T05:21:02;44.10;;;20.83;;
82926;SDS011;72788;40.218;44.486;2024-01-30T05:23:28;40.53;;;20.80;;
82926;SDS011;72788;40.218;44.486;2024-01-30T05:25:54;66.13;;;29.45;;
82926;SDS011;72788;40.218;44.486;2024-01-30T05:28:20;47.42;;;22.48;;
82926;SDS011;72788;40.218;44.486;2024-01-30T05:30:45;49.58;;;23.08;;
82926;SDS011;72788;40.218;44.486;2024-01-30T05:33:11;54.03;;;25.10;;
82926;SDS011;72788;40.218;44.486;2024-01-30T05:35:37;51.08;;;25.75;;
82926;SDS011;72788;40.218;44.486;2024-01-30T05:38:03;58.50;;;24.60;;
82926;SDS011;72788;40.218;44.486;2024-01-30T05:40:29;59.92;;;24.85;;
82926;SDS011;72788;40.218;44.486;2024-01-30T05:42:58;62.85;;;26.23;;
82926;SDS011;72788;40.218;44.486;2024-01-30T05:45:27;55.70;;;28.17;;
82926;SDS011;72788;40.218;44.486;2024-01-30T05:47:53;51.42;;;27.80;;
82926;SDS011;72788;40.218;44.486;2024-01-30T05:50:19;45.88;;;23.88;;
82926;SDS011;72788;40.218;44.486;2024-01-30T05:52:45;57.78;;;27.98;;
82926;SDS011;72788;40.218;44.486;2024-01-30T05:55:11;47.88;;;28.10;;
82926;SDS011;72788;40.218;44.486;2024-01-30T05:57:37;82.72;;;40.17;;
82926;SDS011;72788;40.218;44.486;2024-01-30T06:00:04;63.65;;;38.55;;
82926;SDS011;72788;40.218;44.486;2024-01-30T06:02:30;45.05;;;22.80;;
82926;SDS011;72788;40.218;44.486;2024-01-30T06:04:56;45.22;;;24.48;;
82926;SDS011;72788;40.218;44.486;2024-01-30T06:07:23;49.35;;;28.85;;
82926;SDS011;72788;40.218;44.486;2024-01-30T06:09:49;51.42;;;23.23;;
82926;SDS011;72788;40.218;44.486;2024-01-30T06:12:15;55.80;;;32.60;;
82926;SDS011;72788;40.218;44.486;2024-01-30T06:14:41;51.95;;;25.95;;
82926;SDS011;72788;40.218;44.486;2024-01-30T06:17:07;51.10;;;29.67;;
82926;SDS011;72788;40.218;44.486;2024-01-30T06:19:34;76.20;;;43.55;;
82926;SDS011;72788;40.218;44.486;2024-01-30T06:22:00;65.03;;;37.55;;
82926;SDS011;72788;40.218;44.486;2024-01-30T06:24:26;64.72;;;37.97;;
82926;SDS011;72788;40.218;44.486;2024-01-30T06:26:52;57.72;;;31.95;;
82926;SDS011;72788;40.218;44.486;2024-01-30T06:29:18;68.95;;;40.05;;
82926;SDS011;72788;40.218;44.486;2024-01-30T06:31:44;61.53;;;34.22;;
82926;SDS011;72788;40.218;44.486;2024-01-30T06:34:09;80.78;;;44.53;;
82926;SDS011;72788;40.218;44.486;2024-01-30T06:36:37;43.78;;;23.90;;
82926;SDS011;72788;40.218;44.486;2024-01-30T06:39:03;48.83;;;22.13;;
82926;SDS011;72788;40.218;44.486;2024-01-30T06:41:29;50.72;;;25.05;;
82926;SDS011;72788;40.218;44.486;2024-01-30T06:43:55;49.50;;;24.38;;
82926;SDS011;72788;40.218;44.486;2024-01-30T06:46:21;47.60;;;24.33;;
82926;SDS011;72788;40.218;44.486;2024-01-30T06:48:47;48.92;;;23.27;;
82926;SDS011;72788;40.218;44.486;2024-01-30T06:51:13;59.00;;;31.95;;
82926;SDS011;72788;40.218;44.486;2024-01-30T06:53:38;68.90;;;34.53;;
82926;SDS011;72788;40.218;44.486;2024-01-30T06:56:04;49.38;;;23.88;;
82926;SDS011;72788;40.218;44.486;2024-01-30T06:58:30;47.85;;;23.27;;
82926;SDS011;72788;40.218;44.486;2024-01-30T07:00:57;75.95;;;36.25;;
82926;SDS011;72788;40.218;44.486;2024-01-30T07:03:23;89.97;;;54.65;;
82926;SDS011;72788;40.218;44.486;2024-01-30T07:05:49;72.88;;;37.38;;
82926;SDS011;72788;40.218;44.486;2024-01-30T07:08:15;50.75;;;24.05;;
82926;SDS011;72788;40.218;44.486;2024-01-30T07:10:44;59.55;;;26.63;;
82926;SDS011;72788;40.218;44.486;2024-01-30T07:13:10;65.28;;;32.08;;
82926;SDS011;72788;40.218;44.486;2024-01-30T07:15:36;59.78;;;30.67;;
82926;SDS011;72788;40.218;44.486;2024-01-30T07:18:03;73.82;;;38.33;;
82926;SDS011;72788;40.218;44.486;2024-01-30T07:20:30;60.05;;;33.03;;
82926;SDS011;72788;40.218;44.486;2024-01-30T07:23:00;58.20;;;31.35;;
82926;SDS011;72788;40.218;44.486;2024-01-30T07:25:26;53.00;;;28.40;;
82926;SDS011;72788;40.218;44.486;2024-01-30T07:27:52;45.38;;;25.50;;
82926;SDS011;72788;40.218;44.486;2024-01-30T07:30:18;72.47;;;34.60;;
82926;SDS011;72788;40.218;44.486;2024-01-30T07:32:45;70.45;;;36.28;;
82926;SDS011;72788;40.218;44.486;2024-01-30T07:35:11;83.47;;;40.60;;
82926;SDS011;72788;40.218;44.486;2024-01-30T07:37:37;90.85;;;43.35;;
82926;SDS011;72788;40.218;44.486;2024-01-30T07:40:03;84.88;;;40.58;;
82926;SDS011;72788;40.218;44.486;2024-01-30T07:42:29;62.60;;;29.75;;
82926;SDS011;72788;40.218;44.486;2024-01-30T07:44:55;68.15;;;35.42;;
82926;SDS011;72788;40.218;44.486;2024-01-30T07:47:21;50.72;;;26.30;;
82926;SDS011;72788;40.218;44.486;2024-01-30T07:49:46;47.55;;;26.10;;
82926;SDS011;72788;40.218;44.486;2024-01-30T07:52:12;57.47;;;27.58;;
82926;SDS011;72788;40.218;44.486;2024-01-30T07:54:38;49.10;;;25.08;;
82926;SDS011;72788;40.218;44.486;2024-01-30T07:57:04;51.83;;;25.67;;
82926;SDS011;72788;40.218;44.486;2024-01-30T07:59:30;61.42;;;29.70;;
82926;SDS011;72788;40.218;44.486;2024-01-30T08:01:55;55.08;;;25.95;;
82926;SDS011;72788;40.218;44.486;2024-01-30T08:04:21;55.78;;;27.38;;
82926;SDS011;72788;40.218;44.486;2024-01-30T08:06:47;55.90;;;28.25;;
82926;SDS011;72788;40.218;44.486;2024-01-30T08:09:14;50.83;;;26.02;;
82926;SDS011;72788;40.218;44.486;2024-01-30T08:11:39;59.60;;;29.23;;
82926;SDS011;72788;40.218;44.486;2024-01-30T08:14:05;51.70;;;27.13;;
82926;SDS011;72788;40.218;44.486;2024-01-30T08:16:31;65.63;;;31.48;;
82926;SDS011;72788;40.218;44.486;2024-01-30T08:18:56;54.30;;;28.05;;
82926;SDS011;72788;40.218;44.486;2024-01-30T08:21:23;57.33;;;31.27;;
82926;SDS011;72788;40.218;44.486;2024-01-30T08:23:49;61.95;;;32.08;;
82926;SDS011;72788;40.218;44.486;2024-01-30T08:26:15;79.35;;;45.10;;
82926;SDS011;72788;40.218;44.486;2024-01-30T08:28:40;73.35;;;36.67;;
82926;SDS011;72788;40.218;44.486;2024-01-30T08:31:06;63.63;;;36.15;;
82926;SDS011;72788;40.218;44.486;2024-01-30T08:33:32;56.72;;;30.95;;
82926;SDS011;72788;40.218;44.486;2024-01-30T08:35:57;74.00;;;44.38;;
82926;SDS011;72788;40.218;44.486;2024-01-30T08:38:23;90.55;;;52.33;;
82926;SDS011;72788;40.218;44.486;2024-01-30T08:40:49;58.60;;;29.50;;
82926;SDS011;72788;40.218;44.486;2024-01-30T08:43:14;76.00;;;41.55;;
82926;SDS011;72788;40.218;44.486;2024-01-30T08:45:40;68.15;;;38.35;;
82926;SDS011;72788;40.218;44.486;2024-01-30T08:48:06;68.78;;;36.75;;
82926;SDS011;72788;40.218;44.486;2024-01-30T08:50:33;77.30;;;40.30;;
82926;SDS011;72788;40.218;44.486;2024-01-30T08:52:59;80.22;;;43.22;;
82926;SDS011;72788;40.218;44.486;2024-01-30T08:55:25;54.22;;;29.02;;
82926;SDS011;72788;40.218;44.486;2024-01-30T08:57:51;61.72;;;29.30;;
82926;SDS011;72788;40.218;44.486;2024-01-30T09:00:17;67.28;;;35.75;;
82926;SDS011;72788;40.218;44.486;2024-01-30T09:02:43;89.03;;;46.53;;
82926;SDS011;72788;40.218;44.486;2024-01-30T09:05:08;53.00;;;26.88;;
82926;SDS011;72788;40.218;44.486;2024-01-30T09:07:34;76.78;;;41.47;;
82926;SDS011;72788;40.218;44.486;2024-01-30T09:10:00;61.40;;;32.25;;
82926;SDS011;72788;40.218;44.486;2024-01-30T09:12:25;53.40;;;27.63;;
82926;SDS011;72788;40.218;44.486;2024-01-30T09:14:51;73.97;;;37.47;;
82926;SDS011;72788;40.218;44.486;2024-01-30T09:17:17;50.72;;;23.83;;
82926;SDS011;72788;40.218;44.486;2024-01-30T09:19:42;57.35;;;27.27;;
82926;SDS011;72788;40.218;44.486;2024-01-30T09:22:08;54.58;;;29.23;;
82926;SDS011;72788;40.218;44.486;2024-01-30T09:24:34;55.78;;;30.65;;
82926;SDS011;72788;40.218;44.486;2024-01-30T09:27:00;53.88;;;31.42;;
82926;SDS011;72788;40.218;44.486;2024-01-30T09:29:25;56.70;;;28.80;;
82926;SDS011;72788;40.218;44.486;2024-01-30T09:31:51;52.28;;;26.73;;
82926;SDS011;72788;40.218;44.486;2024-01-30T09:34:17;50.95;;;29.63;;
82926;SDS011;72788;40.218;44.486;2024-01-30T09:36:43;53.10;;;26.75;;
82926;SDS011;72788;40.218;44.486;2024-01-30T09:39:08;69.45;;;36.97;;
82926;SDS011;72788;40.218;44.486;2024-01-30T09:41:35;60.50;;;32.13;;
82926;SDS011;72788;40.218;44.486;2024-01-30T09:44:11;69.68;;;35.58;;
82926;SDS011;72788;40.218;44.486;2024-01-30T09:46:37;63.22;;;33.45;;
82926;SDS011;72788;40.218;44.486;2024-01-30T09:49:04;54.03;;;27.95;;
82926;SDS011;72788;40.218;44.486;2024-01-30T09:51:31;54.58;;;26.50;;
82926;SDS011;72788;40.218;44.486;2024-01-30T09:53:58;60.67;;;28.40;;
82926;SDS011;72788;40.218;44.486;2024-01-30T09:56:24;58.38;;;29.23;;
82926;SDS011;72788;40.218;44.486;2024-01-30T09:58:49;49.63;;;23.70;;
82926;SDS011;72788;40.218;44.486;2024-01-30T10:01:15;45.38;;;22.65;;
82926;SDS011;72788;40.218;44.486;2024-01-30T10:03:44;46.40;;;24.10;;
82926;SDS011;72788;40.218;44.486;2024-01-30T10:06:10;54.67;;;27.05;;
82926;SDS011;72788;40.218;44.486;2024-01-30T10:08:36;48.20;;;26.20;;
82926;SDS011;72788;40.218;44.486;2024-01-30T10:11:02;40.80;;;21.92;;
82926;SDS011;72788;40.218;44.486;2024-01-30T10:13:28;48.38;;;26.13;;
82926;SDS011;72788;40.218;44.486;2024-01-30T10:15:54;46.70;;;24.60;;
82926;SDS011;72788;40.218;44.486;2024-01-30T10:18:22;55.08;;;26.30;;
82926;SDS011;72788;40.218;44.486;2024-01-30T10:20:48;47.80;;;22.20;;
82926;SDS011;72788;40.218;44.486;2024-01-30T10:23:14;51.47;;;24.50;;
82926;SDS011;72788;40.218;44.486;2024-01-30T10:25:39;52.03;;;23.95;;
82926;SDS011;72788;40.218;44.486;2024-01-30T10:28:05;51.30;;;24.38;;
82926;SDS011;72788;40.218;44.486;2024-01-30T10:30:31;43.67;;;22.45;;
82926;SDS011;72788;40.218;44.486;2024-01-30T10:32:57;36.15;;;19.27;;
82926;SDS011;72788;40.218;44.486;2024-01-30T10:35:22;39.97;;;22.67;;
82926;SDS011;72788;40.218;44.486;2024-01-30T10:37:48;43.83;;;21.63;;
82926;SDS011;72788;40.218;44.486;2024-01-30T10:40:14;40.15;;;20.27;;
82926;SDS011;72788;40.218;44.486;2024-01-30T10:42:44;44.58;;;22.00;;
82926;SDS011;72788;40.218;44.486;2024-01-30T10:45:14;44.70;;;23.42;;
82926;SDS011;72788;40.218;44.486;2024-01-30T10:47:46;45.97;;;21.13;;
82926;SDS011;72788;40.218;44.486;2024-01-30T10:52:42;41.55;;;19.55;;
82926;SDS011;72788;40.218;44.486;2024-01-30T10:55:08;42.83;;;20.00;;
82926;SDS011;72788;40.218;44.486;2024-01-30T10:57:35;42.03;;;21.67;;
82926;SDS011;72788;40.218;44.486;2024-01-30T11:00:02;41.03;;;21.38;;
82926;SDS011;72788;40.218;44.486;2024-01-30T11:02:43;43.95;;;21.48;;
82926;SDS011;72788;40.218;44.486;2024-01-30T11:05:12;42.30;;;22.35;;
82926;SDS011;72788;40.218;44.486;2024-01-30T11:07:41;43.05;;;20.15;;
82926;SDS011;72788;40.218;44.486;2024-01-30T11:10:07;42.97;;;19.88;;
82926;SDS011;72788;40.218;44.486;2024-01-30T11:12:38;47.92;;;23.38;;
82926;SDS011;72788;40.218;44.486;2024-01-30T11:15:18;43.53;;;21.75;;
82926;SDS011;72788;40.218;44.486;2024-01-30T11:20:18;46.28;;;22.02;;
82926;SDS011;72788;40.218;44.486;2024-01-30T11:23:01;48.38;;;23.10;;
82926;SDS011;72788;40.218;44.486;2024-01-30T11:25:31;44.05;;;23.20;;
82926;SDS011;72788;40.218;44.486;2024-01-30T11:27:57;45.30;;;22.85;;
82926;SDS011;72788;40.218;44.486;2024-01-30T11:33:08;45.33;;;24.08;;
82926;SDS011;72788;40.218;44.486;2024-01-30T11:35:34;44.08;;;22.77;;
82926;SDS011;72788;40.218;44.486;2024-01-30T11:38:01;47.28;;;24.17;;
82926;SDS011;72788;40.218;44.486;2024-01-30T11:40:28;44.20;;;23.60;;
82926;SDS011;72788;40.218;44.486;2024-01-30T11:42:55;46.95;;;26.80;;
82926;SDS011;72788;40.218;44.486;2024-01-30T11:45:21;132.50;;;65.45;;
82926;SDS011;72788;40.218;44.486;2024-01-30T11:47:47;49.25;;;25.95;;
82926;SDS011;72788;40.218;44.486;2024-01-30T11:50:13;47.60;;;25.27;;
82926;SDS011;72788;40.218;44.486;2024-01-30T11:52:39;67.25;;;34.83;;
82926;SDS011;72788;40.218;44.486;2024-01-30T11:55:07;74.85;;;35.47;;
82926;SDS011;72788;40.218;44.486;2024-01-30T11:57:33;71.60;;;36.70;;
82926;SDS011;72788;40.218;44.486;2024-01-30T12:00:03;60.65;;;29.27;;
82926;SDS011;72788;40.218;44.486;2024-01-30T12:02:35;57.60;;;28.60;;
82926;SDS011;72788;40.218;44.486;2024-01-30T12:05:05;56.50;;;27.65;;
82926;SDS011;72788;40.218;44.486;2024-01-30T12:07:31;54.90;;;28.88;;
82926;SDS011;72788;40.218;44.486;2024-01-30T12:09:57;56.67;;;28.08;;
82926;SDS011;72788;40.218;44.486;2024-01-30T12:12:26;54.33;;;28.23;;
82926;SDS011;72788;40.218;44.486;2024-01-30T12:14:53;67.32;;;36.00;;
82926;SDS011;72788;40.218;44.486;2024-01-30T12:17:37;49.33;;;26.90;;
82926;SDS011;72788;40.218;44.486;2024-01-30T12:20:04;49.67;;;26.95;;
82926;SDS011;72788;40.218;44.486;2024-01-30T12:22:40;62.60;;;33.00;;
82926;SDS011;72788;40.218;44.486;2024-01-30T12:25:08;64.18;;;36.20;;
82926;SDS011;72788;40.218;44.486;2024-01-30T12:27:34;60.22;;;30.95;;
82926;SDS011;72788;40.218;44.486;2024-01-30T12:29:59;57.38;;;30.20;;
82926;SDS011;72788;40.218;44.486;2024-01-30T12:32:25;58.17;;;32.05;;
82926;SDS011;72788;40.218;44.486;2024-01-30T12:34:54;54.88;;;29.95;;
82926;SDS011;72788;40.218;44.486;2024-01-30T12:37:22;116.32;;;60.28;;
82926;SDS011;72788;40.218;44.486;2024-01-30T12:39:50;55.65;;;28.75;;
82926;SDS011;72788;40.218;44.486;2024-01-30T12:42:18;74.30;;;39.35;;
82926;SDS011;72788;40.218;44.486;2024-01-30T12:44:44;53.65;;;28.27;;
82926;SDS011;72788;40.218;44.486;2024-01-30T12:47:10;82.53;;;44.83;;
82926;SDS011;72788;40.218;44.486;2024-01-30T12:49:36;49.72;;;26.33;;
82926;SDS011;72788;40.218;44.486;2024-01-30T12:52:02;61.92;;;31.20;;
82926;SDS011;72788;40.218;44.486;2024-01-30T12:54:28;52.70;;;26.08;;
82926;SDS011;72788;40.218;44.486;2024-01-30T12:56:53;65.32;;;36.55;;
82926;SDS011;72788;40.218;44.486;2024-01-30T12:59:19;76.18;;;43.28;;
82926;SDS011;72788;40.218;44.486;2024-01-30T13:01:45;80.93;;;47.38;;
82926;SDS011;72788;40.218;44.486;2024-01-30T13:04:11;53.47;;;28.30;;
82926;SDS011;72788;40.218;44.486;2024-01-30T13:06:36;71.43;;;35.45;;
82926;SDS011;72788;40.218;44.486;2024-01-30T13:09:02;58.00;;;31.30;;
82926;SDS011;72788;40.218;44.486;2024-01-30T13:11:28;67.13;;;36.42;;
82926;SDS011;72788;40.218;44.486;2024-01-30T13:13:53;121.70;;;73.43;;
82926;SDS011;72788;40.218;44.486;2024-01-30T13:16:19;71.63;;;39.80;;
82926;SDS011;72788;40.218;44.486;2024-01-30T13:18:45;77.13;;;43.58;;
82926;SDS011;72788;40.218;44.486;2024-01-30T13:21:10;67.53;;;36.00;;
82926;SDS011;72788;40.218;44.486;2024-01-30T13:23:36;100.82;;;53.70;;
82926;SDS011;72788;40.218;44.486;2024-01-30T13:26:02;92.95;;;50.83;;
82926;SDS011;72788;40.218;44.486;2024-01-30T13:28:27;63.50;;;33.28;;
82926;SDS011;72788;40.218;44.486;2024-01-30T13:30:53;54.25;;;26.52;;
82926;SDS011;72788;40.218;44.486;2024-01-30T13:33:19;78.60;;;40.75;;
82926;SDS011;72788;40.218;44.486;2024-01-30T13:35:44;115.82;;;62.75;;
82926;SDS011;72788;40.218;44.486;2024-01-30T13:38:10;91.88;;;43.97;;
82926;SDS011;72788;40.218;44.486;2024-01-30T13:40:36;99.10;;;48.25;;
82926;SDS011;72788;40.218;44.486;2024-01-30T13:43:02;111.22;;;50.92;;
82926;SDS011;72788;40.218;44.486;2024-01-30T13:45:27;99.00;;;44.75;;
82926;SDS011;72788;40.218;44.486;2024-01-30T13:47:53;62.35;;;31.65;;
82926;SDS011;72788;40.218;44.486;2024-01-30T13:50:19;73.85;;;35.40;;
82926;SDS011;72788;40.218;44.486;2024-01-30T13:52:45;93.38;;;42.88;;
82926;SDS011;72788;40.218;44.486;2024-01-30T13:55:11;80.13;;;38.13;;
82926;SDS011;72788;40.218;44.486;2024-01-30T13:57:37;71.90;;;36.53;;
82926;SDS011;72788;40.218;44.486;2024-01-30T14:00:03;62.45;;;30.85;;
82926;SDS011;72788;40.218;44.486;2024-01-30T14:02:33;82.82;;;36.35;;
82926;SDS011;72788;40.218;44.486;2024-01-30T14:04:59;74.43;;;34.05;;
82926;SDS011;72788;40.218;44.486;2024-01-30T14:07:25;63.10;;;29.60;;
82926;SDS011;72788;40.218;44.486;2024-01-30T14:09:51;49.42;;;26.17;;
82926;SDS011;72788;40.218;44.486;2024-01-30T14:12:16;49.97;;;24.77;;